Time;durP1;ratioP1;P1;durP2;ratioP2;P2;SDS_P1;SDS_P2;PMS_P1;PMS_P2;Temp;Humidity;BMP_temperature;BMP_pressure;BME280_temperature;BME280_humidity;BME280_pressure;Samples;Min_cycle;Max_cycle;Signal;HPM_P1;HPM_P2
2022/10/26 00:07:28;;;;;;;2.83;1.10;;;19.30;56.60;;;;;;20723901;28;20155;-89
2022/10/26 00:17:28;;;;;;;4.13;1.00;;;19.30;56.60;;;;;;20729727;28;20034;-88
2022/10/26 00:27:33;;;;;;;2.13;1.30;;;19.30;56.50;;;;;;20711010;28;20125;-89
2022/10/26 00:37:34;;;;;;;2.65;1.23;;;19.30;56.50;;;;;;20679322;28;20636;-88
2022/10/26 00:47:40;;;;;;;1.65;1.20;;;19.30;56.50;;;;;;20725073;28;20034;-89
2022/10/26 00:57:42;;;;;;;1.23;0.90;;;19.20;56.40;;;;;;20705569;28;20034;-90
2022/10/26 01:07:43;;;;;;;1.38;0.80;;;19.20;56.30;;;;;;20717647;28;20092;-87
2022/10/26 01:17:59;;;;;;;1.00;0.90;;;19.10;56.20;;;;;;20652971;28;20022;-89
2022/10/26 01:28:01;;;;;;;2.63;1.13;;;19.10;56.20;;;;;;20700753;28;20049;-88
2022/10/26 01:38:24;;;;;;;1.63;1.00;;;19.10;56.10;;;;;;20673158;28;20037;-89
2022/10/26 01:48:27;;;;;;;1.77;0.90;;;19.10;56.10;;;;;;20715207;28;20085;-89
2022/10/26 02:08:52;;;;;;;1.77;1.20;;;19.00;56.70;;;;;;20931905;23;20042;-77
2022/10/26 02:19:01;;;;;;;1.70;1.00;;;19.00;56.00;;;;;;20626244;28;20207;-77
2022/10/26 02:29:05;;;;;;;2.55;1.20;;;19.00;56.00;;;;;;20665495;28;20088;-77
2022/10/26 02:39:07;;;;;;;4.63;1.03;;;19.00;55.90;;;;;;20637080;28;20366;-76
2022/10/26 02:49:08;;;;;;;1.73;0.93;;;18.90;55.80;;;;;;20682990;28;20037;-76
2022/10/26 02:59:08;;;;;;;0.77;0.77;;;18.90;56.40;;;;;;20643626;28;20030;-77
2022/10/26 03:09:09;;;;;;;4.03;1.67;;;18.90;55.70;;;;;;20665689;28;20045;-77
2022/10/26 03:19:14;;;;;;;1.27;1.00;;;18.90;55.70;;;;;;20658835;28;20041;-77
2022/10/26 03:29:15;;;;;;;1.20;0.80;;;18.90;55.70;;;;;;20687654;28;20037;-77
2022/10/26 03:39:15;;;;;;;1.10;0.90;;;18.80;55.60;;;;;;20664926;28;20057;-77
2022/10/26 03:49:17;;;;;;;1.58;0.80;;;18.80;55.60;;;;;;20655684;28;20476;-77
2022/10/26 03:59:18;;;;;;;5.40;1.40;;;18.80;55.60;;;;;;20704349;28;20026;-77
2022/10/26 04:09:19;;;;;;;1.38;0.95;;;18.70;55.50;;;;;;20676324;28;20045;-78
2022/10/26 04:19:19;;;;;;;1.75;0.80;;;18.70;55.50;;;;;;20694909;28;20026;-77
2022/10/26 04:29:21;;;;;;;0.93;0.70;;;18.70;55.50;;;;;;20709120;28;20774;-77
2022/10/26 04:39:22;;;;;;;2.05;1.38;;;18.70;55.50;;;;;;20669237;28;20029;-77
2022/10/26 04:49:22;;;;;;;1.30;0.90;;;18.60;55.40;;;;;;20684906;28;20038;-77
2022/10/26 04:59:23;;;;;;;1.95;1.23;;;18.60;55.40;;;;;;20700601;28;20037;-77
2022/10/26 05:09:24;;;;;;;0.75;0.65;;;18.60;55.40;;;;;;20659035;28;20065;-77
2022/10/26 05:19:24;;;;;;;0.85;0.70;;;18.60;55.40;;;;;;20692454;28;20041;-77
2022/10/26 05:29:25;;;;;;;0.77;0.45;;;18.60;55.50;;;;;;20691742;28;20719;-78
2022/10/26 05:39:26;;;;;;;2.35;0.65;;;18.50;55.40;;;;;;20664608;28;20487;-77
2022/10/26 05:49:26;;;;;;;1.98;1.30;;;18.50;55.50;;;;;;20661664;28;20449;-77
2022/10/26 05:59:27;;;;;;;1.08;0.82;;;18.50;55.50;;;;;;20655127;28;20480;-77
2022/10/26 06:09:28;;;;;;;1.15;0.75;;;18.50;55.60;;;;;;20668401;28;20149;-76
2022/10/26 06:20:07;;;;;;;0.60;0.60;;;18.50;55.70;;;;;;20645388;28;20038;-78
2022/10/26 06:30:10;;;;;;;0.75;0.50;;;18.40;55.70;;;;;;20676540;28;20041;-77
2022/10/26 06:40:32;;;;;;;0.90;0.65;;;18.40;55.80;;;;;;20651370;28;20077;-77
2022/10/26 06:50:41;;;;;;;0.85;0.63;;;18.40;55.90;;;;;;20655895;28;20497;-77
2022/10/26 07:00:43;;;;;;;1.00;0.50;;;18.40;56.00;;;;;;20657087;28;20054;-77
2022/10/26 07:10:43;;;;;;;0.77;0.47;;;18.40;56.00;;;;;;20676450;28;20036;-77
2022/10/26 07:20:44;;;;;;;1.13;0.60;;;18.30;56.00;;;;;;20649078;28;20452;-77
2022/10/26 07:30:46;;;;;;;0.88;0.60;;;18.30;56.10;;;;;;20677109;28;20797;-77
2022/10/26 07:40:47;;;;;;;1.23;0.80;;;18.30;56.20;;;;;;20668901;28;20041;-78
2022/10/26 07:50:48;;;;;;;1.33;0.80;;;18.30;56.30;;;;;;20685924;28;20077;-77
2022/10/26 08:00:49;;;;;;;0.60;0.50;;;18.30;56.40;;;;;;20688011;28;20084;-77
2022/10/26 08:10:51;;;;;;;1.20;0.60;;;18.30;56.50;;;;;;20669650;28;20061;-77
2022/10/26 08:20:52;;;;;;;0.70;0.70;;;18.30;56.50;;;;;;20657641;28;20638;-76
2022/10/26 08:30:53;;;;;;;1.23;0.50;;;18.30;56.60;;;;;;20656959;28;20069;-77
2022/10/26 08:40:55;;;;;;;0.93;0.52;;;18.30;56.60;;;;;;20679576;28;20030;-77
2022/10/26 08:51:01;;;;;;;0.80;0.45;;;18.40;56.60;;;;;;20659522;28;20045;-77
2022/10/26 09:01:04;;;;;;;0.55;0.55;;;18.50;56.50;;;;;;20624055;28;1052305;-78
2022/10/26 09:11:23;;;;;;;0.65;0.47;;;18.60;56.40;;;;;;20689261;28;20030;-78
2022/10/26 09:21:42;;;;;;;0.75;0.50;;;18.70;56.20;;;;;;20676209;28;20048;-77
2022/10/26 09:31:44;;;;;;;0.98;0.60;;;18.80;55.90;;;;;;20693431;28;20036;-77
2022/10/26 09:42:01;;;;;;;0.47;0.47;;;18.90;55.70;;;;;;20654345;28;20523;-77
2022/10/26 09:52:01;;;;;;;0.85;0.40;;;19.10;55.40;;;;;;20668306;28;20141;-78
2022/10/26 10:02:30;;;;;;;0.80;0.50;;;19.20;55.10;;;;;;20656417;28;20410;-77
2022/10/26 10:12:31;;;;;;;1.02;0.50;;;19.30;54.80;;;;;;20680164;28;20346;-77
2022/10/26 10:22:31;;;;;;;0.43;0.37;;;19.40;54.50;;;;;;20676766;28;20042;-77
2022/10/26 10:32:32;;;;;;;0.40;0.40;;;19.50;54.30;;;;;;20689351;28;20297;-77
2022/10/26 10:42:37;;;;;;;0.65;0.50;;;19.50;54.10;;;;;;20674093;28;20029;-77
2022/10/26 10:52:38;;;;;;;0.52;0.40;;;19.60;53.90;;;;;;20674380;28;20042;-77
2022/10/26 11:02:59;;;;;;;0.60;0.32;;;19.70;53.80;;;;;;20660935;28;20042;-77
2022/10/26 11:13:03;;;;;;;0.80;0.40;;;19.70;53.70;;;;;;20671388;28;20180;-77
2022/10/26 11:23:08;;;;;;;0.50;0.40;;;19.80;53.60;;;;;;20668893;28;20116;-76
2022/10/26 11:33:15;;;;;;;0.30;0.30;;;19.80;53.50;;;;;;20634331;28;20039;-76
2022/10/26 11:43:38;;;;;;;0.30;0.30;;;19.90;53.40;;;;;;20641688;28;20128;-76
2022/10/26 11:53:39;;;;;;;0.57;0.30;;;19.90;53.20;;;;;;20676419;28;20041;-76
2022/10/26 12:03:46;;;;;;;0.43;0.30;;;20.00;53.00;;;;;;20671921;28;20044;-76
2022/10/26 12:13:49;;;;;;;0.25;0.25;;;20.10;52.70;;;;;;20669677;28;20034;-76
2022/10/26 12:24:32;;;;;;;0.50;0.40;;;20.20;52.50;;;;;;20662378;28;20033;-77
2022/10/26 12:34:45;;;;;;;0.25;0.25;;;20.30;52.20;;;;;;20431207;28;20457;-77
2022/10/26 12:44:53;;;;;;;0.17;0.17;;;20.40;52.20;;;;;;20685408;28;20449;-76
2022/10/26 12:55:08;;;;;;;0.32;0.30;;;20.40;52.10;;;;;;20671154;28;20480;-76
2022/10/26 13:05:22;;;;;;;;;;;20.40;52.10;;;;;;20695237;28;20052;-77
2022/10/26 13:15:23;;;;;;;0.30;0.30;;;20.40;52.10;;;;;;20673621;28;19914;-77
2022/10/26 13:25:28;;;;;;;0.40;0.40;;;20.40;52.00;;;;;;20692180;28;20034;-77
2022/10/26 13:35:29;;;;;;;0.30;0.30;;;20.40;52.10;;;;;;20664249;28;20030;-76
2022/10/26 13:45:33;;;;;;;0.38;0.25;;;20.40;52.10;;;;;;20668662;28;20083;-76
2022/10/26 13:55:52;;;;;;;0.52;0.30;;;20.40;52.10;;;;;;20668734;28;20447;-76
2022/10/26 14:05:53;;;;;;;0.57;0.30;;;20.40;52.10;;;;;;20670186;28;20042;-76
2022/10/26 14:15:54;;;;;;;1.35;0.20;;;20.40;52.10;;;;;;20669477;28;20034;-76
2022/10/26 14:25:55;;;;;;;0.47;0.30;;;20.40;52.10;;;;;;20665820;28;20038;-76
2022/10/26 14:35:57;;;;;;;0.38;0.25;;;20.40;52.10;;;;;;20672004;28;20104;-76
2022/10/26 14:45:57;;;;;;;0.77;0.30;;;20.40;52.20;;;;;;20678370;28;20061;-76
2022/10/26 14:55:58;;;;;;;0.22;0.22;;;20.40;52.20;;;;;;20677219;28;20120;-76
2022/10/26 15:06:27;;;;;;;0.30;0.20;;;20.40;52.20;;;;;;20638992;28;20477;-76
2022/10/26 15:16:32;;;;;;;0.25;0.25;;;20.40;52.30;;;;;;20684036;28;20038;-76
2022/10/26 15:26:32;;;;;;;0.20;0.20;;;20.40;52.30;;;;;;20662687;28;20032;-76
2022/10/26 15:36:34;;;;;;;0.30;0.20;;;20.30;52.40;;;;;;20656891;28;20117;-76
2022/10/26 15:46:35;;;;;;;0.25;0.20;;;20.30;52.50;;;;;;20654128;28;20042;-76
2022/10/26 15:56:37;;;;;;;0.60;0.30;;;20.30;52.60;;;;;;20678460;28;20038;-76
2022/10/26 16:06:40;;;;;;;0.40;0.30;;;20.30;53.40;;;;;;20671531;28;20384;-75
2022/10/26 16:16:41;;;;;;;0.25;0.25;;;20.20;52.70;;;;;;20671448;28;20070;-76
2022/10/26 16:26:42;;;;;;;0.15;0.15;;;20.20;52.70;;;;;;20655124;28;20045;-75
2022/10/26 16:36:42;;;;;;;0.47;0.40;;;20.30;52.80;;;;;;20652307;28;20047;-76
2022/10/26 16:46:43;;;;;;;0.47;0.25;;;20.30;52.80;;;;;;20682864;28;20297;-76
2022/10/26 16:56:44;;;;;;;0.20;0.20;;;20.20;52.80;;;;;;20688192;28;20036;-76
2022/10/26 17:06:44;;;;;;;1.00;0.40;;;20.20;52.90;;;;;;20672802;28;20038;-76
2022/10/26 17:16:45;;;;;;;0.28;0.28;;;20.20;53.00;;;;;;20674334;28;20030;-76
2022/10/26 17:26:45;;;;;;;0.40;0.30;;;20.20;53.00;;;;;;20675787;28;20045;-76
2022/10/26 17:36:46;;;;;;;1.57;0.30;;;20.20;53.10;;;;;;20673861;28;20038;-77
2022/10/26 17:46:46;;;;;;;0.32;0.32;;;20.10;53.80;;;;;;20664331;28;20783;-77
2022/10/26 17:56:47;;;;;;;1.42;0.70;;;20.10;53.20;;;;;;20655361;28;20500;-76
2022/10/26 18:06:49;;;;;;;0.95;0.40;;;20.10;53.30;;;;;;20662234;28;20034;-76
2022/10/26 18:16:49;;;;;;;0.40;0.30;;;20.10;53.40;;;;;;20649662;28;20216;-77
2022/10/26 18:26:50;;;;;;;0.77;0.50;;;20.10;53.50;;;;;;20656121;28;20473;-76
2022/10/26 18:36:52;;;;;;;0.52;0.40;;;20.00;53.50;;;;;;20692422;28;20038;-77
2022/10/26 18:46:53;;;;;;;0.88;0.52;;;20.10;53.60;;;;;;20651314;28;20416;-77
2022/10/26 18:56:53;;;;;;;0.67;0.50;;;20.10;53.70;;;;;;20643053;28;20165;-76
2022/10/26 19:06:54;;;;;;;1.08;0.57;;;20.00;53.70;;;;;;20666004;28;20292;-76
2022/10/26 19:16:54;;;;;;;0.90;0.60;;;20.00;53.80;;;;;;20643190;28;20124;-76
2022/10/26 19:26:55;;;;;;;1.58;0.52;;;20.00;53.90;;;;;;20691129;28;20026;-76
2022/10/26 19:36:56;;;;;;;0.30;0.30;;;20.00;54.00;;;;;;20674492;28;20030;-76
2022/10/26 19:46:56;;;;;;;0.57;0.43;;;20.00;54.00;;;;;;20680121;28;20427;-76
2022/10/26 19:56:57;;;;;;;0.73;0.50;;;20.00;54.10;;;;;;20672383;28;20034;-77
2022/10/26 20:06:57;;;;;;;0.65;0.40;;;19.90;54.10;;;;;;20666299;28;20034;-76
2022/10/26 20:16:58;;;;;;;0.40;0.38;;;19.90;54.20;;;;;;20683045;28;20395;-76
2022/10/26 20:26:59;;;;;;;0.90;0.52;;;19.90;54.20;;;;;;20674090;28;20030;-77
2022/10/26 20:36:59;;;;;;;0.98;0.63;;;19.90;54.30;;;;;;20684767;28;20030;-77
2022/10/26 20:47:00;;;;;;;1.00;0.47;;;19.90;54.40;;;;;;20663754;28;20030;-77
2022/10/26 20:57:01;;;;;;;1.23;0.60;;;19.90;54.40;;;;;;20671692;28;20026;-77
2022/10/26 21:07:02;;;;;;;1.60;0.80;;;19.90;54.50;;;;;;20675580;28;20081;-76
2022/10/26 21:17:02;;;;;;;1.40;0.67;;;19.80;54.50;;;;;;20672630;28;20038;-77
2022/10/26 21:27:03;;;;;;;1.15;0.63;;;19.80;54.60;;;;;;20651960;28;20042;-76
2022/10/26 21:37:03;;;;;;;2.47;0.57;;;19.80;54.70;;;;;;20668334;28;20429;-76
2022/10/26 21:47:04;;;;;;;1.20;0.80;;;19.80;54.70;;;;;;20650367;28;20113;-77
2022/10/26 21:57:05;;;;;;;1.02;0.70;;;19.80;54.80;;;;;;20647115;28;20037;-76
2022/10/26 22:07:05;;;;;;;1.40;0.70;;;19.70;54.80;;;;;;20678200;28;20053;-76
2022/10/26 22:17:06;;;;;;;1.17;0.60;;;19.70;54.90;;;;;;20671550;28;20037;-76
2022/10/26 22:27:06;;;;;;;1.70;0.80;;;19.70;54.90;;;;;;20661008;28;20084;-76
2022/10/26 22:37:07;;;;;;;1.47;0.60;;;19.70;55.00;;;;;;20662919;28;20060;-77
2022/10/26 22:47:07;;;;;;;1.08;0.80;;;19.80;55.10;;;;;;20668206;28;20034;-77
2022/10/26 22:57:08;;;;;;;1.20;0.80;;;19.70;55.10;;;;;;20662598;28;20484;-76
2022/10/26 23:07:09;;;;;;;2.28;1.08;;;19.60;55.10;;;;;;20667725;28;20492;-77
2022/10/26 23:17:09;;;;;;;0.95;0.65;;;19.60;55.20;;;;;;20684975;28;20068;-76
2022/10/26 23:27:10;;;;;;;1.92;0.80;;;19.60;55.30;;;;;;20650995;28;20041;-76
2022/10/26 23:37:10;;;;;;;1.15;0.73;;;19.60;55.30;;;;;;20649014;28;20105;-76
2022/10/26 23:47:11;;;;;;;1.02;0.68;;;19.60;55.30;;;;;;20652463;28;20496;-77
2022/10/26 23:57:12;;;;;;;1.48;0.80;;;19.50;55.40;;;;;;20648601;28;20035;-77
